Time;durP1;ratioP1;P1;durP2;ratioP2;P2;SDS_P1;SDS_P2;PMS_P1;PMS_P2;Temp;Humidity;BMP_temperature;BMP_pressure;BME280_temperature;BME280_humidity;BME280_pressure;Samples;Min_cycle;Max_cycle;Signal;HPM_P1;HPM_P2
2021/10/13 00:00:11;;;;;;;2.37;2.22;;;;;;;18.54;55.44;100827.59;144994;566;5002;-75
2021/10/13 00:02:38;;;;;;;3.92;2.30;;;;;;;18.51;55.56;100832.84;144994;621;5002;-76
2021/10/13 00:05:06;;;;;;;2.72;2.20;;;;;;;18.55;55.40;100826.72;144994;596;5002;-78
2021/10/13 00:07:34;;;;;;;3.30;2.45;;;;;;;18.53;55.91;100828.44;144994;614;5002;-78
2021/10/13 00:10:00;;;;;;;2.53;2.33;;;;;;;18.54;56.06;100829.34;144994;610;5002;-79
2021/10/13 00:12:28;;;;;;;4.07;3.53;;;;;;;18.57;55.66;100829.34;144994;607;5002;-83
2021/10/13 00:14:55;;;;;;;2.83;1.98;;;;;;;18.56;56.04;100830.22;144994;599;5002;-75
2021/10/13 00:17:22;;;;;;;3.75;2.03;;;;;;;18.52;55.92;100820.56;144994;577;5002;-77
2021/10/13 00:19:49;;;;;;;3.65;2.35;;;;;;;18.48;56.02;100819.69;144994;603;5002;-77
2021/10/13 00:22:16;;;;;;;2.70;2.10;;;;;;;18.51;56.02;100827.59;144994;605;5002;-77
2021/10/13 00:24:43;;;;;;;2.40;2.10;;;;;;;18.50;56.17;100828.47;144994;636;5002;-80
2021/10/13 00:27:10;;;;;;;4.65;2.22;;;;;;;18.51;55.66;100818.84;144994;591;5002;-75
2021/10/13 00:29:38;;;;;;;3.17;2.15;;;;;;;18.53;55.72;100825.81;144994;607;5002;-74
2021/10/13 00:32:06;;;;;;;2.50;2.30;;;;;;;18.53;55.68;100828.44;144994;588;5002;-76
2021/10/13 00:34:35;;;;;;;3.60;2.10;;;;;;;18.49;56.02;100832.84;144994;569;5002;-77
2021/10/13 00:37:03;;;;;;;2.60;2.40;;;;;;;18.52;56.04;100831.06;144994;583;5002;-77
2021/10/13 00:39:29;;;;;;;5.82;2.83;;;;;;;18.53;55.90;100835.47;144994;615;5002;-77
2021/10/13 00:41:57;;;;;;;4.72;2.70;;;;;;;18.44;56.22;100831.13;144994;569;5002;-73
2021/10/13 00:44:24;;;;;;;4.15;2.83;;;;;;;18.42;56.21;100836.38;144994;586;5002;-75
2021/10/13 00:46:51;;;;;;;4.78;2.90;;;;;;;18.42;56.42;100831.13;144994;579;5002;-76
2021/10/13 00:49:18;;;;;;;3.78;3.22;;;;;;;18.39;56.17;100833.75;144994;818;5002;-78
2021/10/13 00:51:46;;;;;;;4.43;3.20;;;;;;;18.38;56.54;100831.97;144994;628;5002;-77
2021/10/13 00:54:13;;;;;;;4.53;3.15;;;;;;;18.35;56.53;100831.13;144994;652;5002;-76
2021/10/13 00:56:40;;;;;;;5.68;3.08;;;;;;;18.28;56.57;100838.13;144994;566;5002;-79
2021/10/13 00:59:08;;;;;;;4.07;3.00;;;;;;;18.32;56.40;100845.12;144994;569;5002;-77
2021/10/13 01:01:58;;;;;;;4.60;2.67;;;;;;;18.35;56.16;100846.87;144994;579;5002;-77
2021/10/13 01:05:13;;;;;;;3.35;2.42;;;;;;;18.37;56.17;100853.00;144994;600;5004;-78
2021/10/13 01:07:55;;;;;;;4.32;2.85;;;;;;;18.36;56.31;100852.12;144994;650;4572;-75
2021/10/13 01:10:59;;;;;;;3.67;2.67;;;;;;;18.38;56.30;100854.75;144994;571;4572;-76
2021/10/13 01:14:05;;;;;;;5.80;3.20;;;;;;;18.42;56.06;100846.87;144992;619;6002;-79
2021/10/13 01:16:59;;;;;;;3.95;3.10;;;;;;;18.42;56.49;100854.75;144992;583;6004;-76
2021/10/13 01:20:00;;;;;;;4.12;3.25;;;;;;;18.41;55.97;100852.12;144992;608;6002;-77
2021/10/13 01:23:10;;;;;;;6.55;3.05;;;;;;;18.41;56.09;100858.25;144992;562;6004;-76
2021/10/13 01:26:06;;;;;;;4.80;2.60;;;;;;;18.40;56.18;100851.25;144992;572;6004;-75
2021/10/13 01:28:36;;;;;;;4.00;2.75;;;;;;;18.40;55.85;100848.62;144992;608;6002;-73
2021/10/13 01:31:30;;;;;;;5.32;2.62;;;;;;;18.37;55.96;100851.25;144992;594;6002;-77
2021/10/13 01:34:06;;;;;;;3.58;2.47;;;;;;;18.37;56.09;100853.00;144992;581;6004;-75
2021/10/13 01:36:40;;;;;;;2.95;2.60;;;;;;;18.35;56.25;100855.62;144992;592;6004;-77
2021/10/13 01:39:08;;;;;;;3.33;2.73;;;;;;;18.36;56.12;100854.75;144992;612;6004;-76
2021/10/13 01:41:38;;;;;;;2.90;2.65;;;;;;;18.33;56.11;100851.28;144992;598;6004;-77
2021/10/13 01:44:09;;;;;;;3.00;2.50;;;;;;;18.34;56.17;100859.16;144992;569;6004;-76
2021/10/13 01:46:38;;;;;;;3.28;2.95;;;;;;;18.37;55.87;100860.87;144992;580;6004;-76
2021/10/13 01:49:06;;;;;;;2.83;2.50;;;;;;;18.33;55.95;100851.28;144992;568;6004;-78
2021/10/13 01:51:34;;;;;;;2.78;2.50;;;;;;;18.28;56.22;100857.37;144992;571;6004;-77
2021/10/13 01:54:03;;;;;;;3.85;2.60;;;;;;;18.27;56.13;100852.12;144992;587;6004;-78
2021/10/13 01:56:31;;;;;;;4.07;2.62;;;;;;;18.22;56.11;100851.25;144992;565;6004;-74
2021/10/13 01:59:05;;;;;;;3.03;2.33;;;;;;;18.22;56.05;100851.25;144992;569;6004;-76
2021/10/13 02:01:34;;;;;;;3.50;2.53;;;;;;;18.21;56.10;100850.37;144992;587;6004;-75
2021/10/13 02:04:05;;;;;;;5.07;2.97;;;;;;;18.22;56.01;100857.37;144992;592;6004;-74
2021/10/13 02:06:34;;;;;;;5.07;2.67;;;;;;;18.22;55.88;100856.50;144992;585;6004;-76
2021/10/13 02:09:02;;;;;;;5.37;3.15;;;;;;;18.23;55.62;100855.62;144992;571;6004;-73
2021/10/13 02:11:31;;;;;;;3.22;2.60;;;;;;;18.20;55.95;100864.41;144992;618;6004;-76
2021/10/13 02:14:08;;;;;;;3.85;2.80;;;;;;;18.11;55.67;100860.00;144992;587;6004;-80
2021/10/13 02:16:37;;;;;;;3.60;3.03;;;;;;;18.06;56.21;100859.12;144992;581;6004;-76
2021/10/13 02:19:06;;;;;;;3.58;3.10;;;;;;;18.03;56.35;100869.62;144992;603;6004;-78
2021/10/13 02:21:37;;;;;;;4.22;3.30;;;;;;;18.05;56.31;100872.25;144992;580;6004;-76
2021/10/13 02:24:05;;;;;;;3.47;3.17;;;;;;;18.05;55.95;100873.12;144992;568;6004;-79
2021/10/13 02:26:40;;;;;;;5.97;3.22;;;;;;;18.04;56.15;100876.63;144992;578;6004;-79
2021/10/13 02:29:12;;;;;;;4.15;3.10;;;;;;;18.04;56.21;100876.63;144992;593;6004;-79
2021/10/13 02:31:39;;;;;;;5.12;2.95;;;;;;;18.06;56.02;100871.37;144992;599;6004;-78
2021/10/13 02:34:06;;;;;;;3.30;2.90;;;;;;;18.05;56.04;100875.75;144992;592;6004;-78
2021/10/13 02:36:33;;;;;;;4.65;2.70;;;;;;;18.01;56.16;100881.88;144992;597;6004;-78
2021/10/13 02:38:59;;;;;;;3.10;2.70;;;;;;;17.99;55.94;100882.75;144992;583;6004;-79
2021/10/13 02:41:25;;;;;;;3.75;2.47;;;;;;;17.96;56.01;100883.63;144991;591;6000;-79
2021/10/13 02:43:52;;;;;;;4.57;2.60;;;;;;;17.92;56.30;100881.88;144992;586;6002;-78
2021/10/13 02:46:48;;;;;;;4.05;3.05;;;;;;;17.88;55.66;100890.59;144991;582;6002;-78
2021/10/13 02:49:41;;;;;;;4.00;2.72;;;;;;;17.85;55.70;100885.28;144992;579;6004;-78
2021/10/13 02:52:46;;;;;;;3.35;2.70;;;;;;;17.79;56.64;100899.31;144992;589;6002;-79
2021/10/13 02:55:22;;;;;;;3.62;2.50;;;;;;;17.74;56.56;100895.81;144992;567;6004;-78
2021/10/13 02:58:05;;;;;;;9.25;2.60;;;;;;;17.69;56.88;100900.12;144992;572;6005;-78
2021/10/13 03:00:34;;;;;;;2.62;2.42;;;;;;;17.55;56.75;100910.59;144992;565;6004;-78
2021/10/13 03:03:19;;;;;;;2.60;2.40;;;;;;;17.49;56.77;100905.31;144992;576;6004;-77
2021/10/13 03:05:49;;;;;;;3.25;2.22;;;;;;;17.44;57.64;100914.94;144992;634;6004;-80
2021/10/13 03:08:18;;;;;;;2.95;2.60;;;;;;;17.41;57.90;100916.66;144992;595;6004;-78
2021/10/13 03:10:50;;;;;;;2.90;2.60;;;;;;;17.35;57.55;100908.75;144992;572;6004;-80
2021/10/13 03:13:20;;;;;;;2.83;2.60;;;;;;;17.24;57.24;100918.31;144991;586;6000;-80
2021/10/13 03:15:46;;;;;;;5.28;2.58;;;;;;;17.22;57.51;100917.44;144992;601;6002;-79
2021/10/13 03:18:16;;;;;;;3.05;2.75;;;;;;;17.22;58.00;100920.91;144992;580;6002;-78
2021/10/13 03:20:43;;;;;;;5.18;2.87;;;;;;;17.23;57.61;100916.56;144992;575;6002;-78
2021/10/13 03:23:13;;;;;;;3.42;3.12;;;;;;;17.19;58.01;100914.78;144992;599;6002;-79
2021/10/13 03:25:39;;;;;;;4.30;2.92;;;;;;;17.22;57.29;100917.44;144992;633;6002;-79
2021/10/13 03:28:07;;;;;;;3.35;2.92;;;;;;;17.17;58.45;100911.28;144992;630;6002;-79
2021/10/13 03:30:34;;;;;;;3.12;2.80;;;;;;;17.18;58.27;100920.88;144992;575;6002;-78
2021/10/13 03:33:01;;;;;;;3.62;2.90;;;;;;;17.21;58.10;100919.19;144992;622;6002;-78
2021/10/13 03:35:32;;;;;;;5.35;3.08;;;;;;;17.27;57.97;100922.72;144992;574;6002;-78
2021/10/13 03:38:01;;;;;;;4.80;2.78;;;;;;;17.32;57.11;100920.97;144992;564;6002;-79
2021/10/13 03:40:29;;;;;;;3.08;2.70;;;;;;;17.32;57.80;100921.87;144992;634;6002;-78
2021/10/13 03:42:55;;;;;;;4.25;2.90;;;;;;;17.35;57.05;100934.12;144992;564;6002;-79
2021/10/13 03:45:23;;;;;;;3.22;2.72;;;;;;;17.33;57.79;100928.84;144992;592;6002;-78
2021/10/13 03:47:50;;;;;;;4.15;2.50;;;;;;;17.30;57.55;100934.09;144992;660;6002;-79
2021/10/13 03:50:19;;;;;;;2.65;2.45;;;;;;;17.30;56.99;100930.59;144992;600;6002;-78
2021/10/13 03:52:46;;;;;;;3.37;2.65;;;;;;;17.29;58.06;100937.59;144992;585;6002;-79
2021/10/13 03:55:19;;;;;;;4.53;2.65;;;;;;;17.28;57.30;100946.34;144992;618;6002;-80
2021/10/13 03:57:48;;;;;;;2.90;2.37;;;;;;;17.26;57.65;100941.94;144992;585;6002;-79
2021/10/13 04:00:18;;;;;;;2.62;2.30;;;;;;;17.23;57.57;100942.81;144992;587;6002;-79
2021/10/13 04:02:45;;;;;;;2.75;2.35;;;;;;;17.24;57.65;100939.28;144992;575;6002;-78
2021/10/13 04:05:12;;;;;;;4.82;2.60;;;;;;;17.25;57.16;100945.44;144992;625;6002;-77
2021/10/13 04:07:39;;;;;;;3.28;2.50;;;;;;;17.24;57.34;100955.03;144992;584;6002;-79
2021/10/13 04:10:08;;;;;;;4.05;2.80;;;;;;;17.25;57.72;100951.56;144992;603;6002;-78
2021/10/13 04:12:35;;;;;;;3.62;2.70;;;;;;;17.28;57.18;100961.19;144992;632;6002;-78
2021/10/13 04:15:07;;;;;;;2.92;2.62;;;;;;;17.27;57.10;100959.44;144992;607;6002;-79
2021/10/13 04:17:33;;;;;;;5.65;3.08;;;;;;;17.27;56.94;100955.06;144992;574;6002;-78
2021/10/13 04:20:11;;;;;;;6.55;2.80;;;;;;;17.27;56.97;100956.81;144992;651;6002;-79
2021/10/13 04:22:38;;;;;;;6.57;3.20;;;;;;;17.29;57.60;100958.59;144992;609;6002;-78
2021/10/13 04:25:06;;;;;;;7.12;3.25;;;;;;;17.31;57.01;100942.84;144992;577;6002;-83
2021/10/13 04:27:32;;;;;;;5.20;3.50;;;;;;;17.34;56.97;100951.63;144992;586;6002;-80
2021/10/13 04:29:59;;;;;;;5.47;3.80;;;;;;;17.33;57.23;100960.34;144992;564;6002;-81
2021/10/13 04:32:25;;;;;;;6.35;3.12;;;;;;;17.34;57.53;100961.22;144992;579;6002;-79
2021/10/13 04:34:52;;;;;;;6.68;3.50;;;;;;;17.35;57.66;100957.72;144992;573;6002;-77
2021/10/13 04:37:19;;;;;;;5.93;3.50;;;;;;;17.34;57.79;100967.34;144992;564;6002;-81
2021/10/13 04:39:46;;;;;;;11.10;3.40;;;;;;;17.33;57.75;100968.22;144992;575;6002;-80
2021/10/13 04:42:12;;;;;;;5.60;3.28;;;;;;;17.33;57.81;100967.34;144992;571;6002;-79
2021/10/13 04:44:39;;;;;;;4.72;3.60;;;;;;;17.25;57.78;100974.31;144992;596;6002;-78
2021/10/13 04:47:05;;;;;;;6.60;3.45;;;;;;;17.21;58.29;100978.63;144992;569;6002;-78
2021/10/13 04:49:32;;;;;;;4.87;3.67;;;;;;;17.22;58.22;100980.41;144992;582;6002;-78
2021/10/13 04:51:59;;;;;;;7.60;4.15;;;;;;;17.19;57.93;100983.00;144992;623;6002;-80
2021/10/13 04:54:25;;;;;;;8.05;3.83;;;;;;;17.17;57.76;100985.59;144992;619;6002;-80
2021/10/13 04:56:52;;;;;;;6.10;3.70;;;;;;;17.20;58.06;100984.75;144992;596;6003;-79
2021/10/13 04:59:18;;;;;;;7.85;4.20;;;;;;;17.19;58.14;100983.84;144992;573;6002;-80
2021/10/13 05:01:45;;;;;;;8.45;4.00;;;;;;;17.15;58.42;100982.09;144992;578;6002;-78
2021/10/13 05:04:11;;;;;;;5.18;4.10;;;;;;;17.15;58.43;100987.34;144992;581;6003;-80
2021/10/13 05:06:38;;;;;;;7.15;3.78;;;;;;;17.15;57.95;100987.34;144992;566;6002;-80
2021/10/13 05:09:04;;;;;;;7.47;3.80;;;;;;;17.09;58.37;100997.78;144992;569;6002;-80
2021/10/13 05:11:31;;;;;;;5.40;3.33;;;;;;;17.10;58.08;101006.53;144992;622;6002;-80
2021/10/13 05:13:57;;;;;;;3.58;2.97;;;;;;;17.09;58.16;101004.78;144992;604;6002;-80
2021/10/13 05:16:24;;;;;;;5.10;3.80;;;;;;;17.09;57.99;101005.66;144992;581;6002;-81
2021/10/13 05:18:50;;;;;;;5.62;3.72;;;;;;;17.12;58.70;101008.31;144992;576;6002;-79
2021/10/13 05:21:17;;;;;;;8.48;3.62;;;;;;;17.06;58.65;101015.25;144992;581;6002;-80
2021/10/13 05:23:43;;;;;;;5.25;3.58;;;;;;;17.08;58.17;101022.25;144992;570;6002;-77
2021/10/13 05:26:10;;;;;;;4.47;3.70;;;;;;;17.12;58.70;101023.19;144992;579;6002;-81
2021/10/13 05:28:36;;;;;;;4.72;4.00;;;;;;;17.16;58.81;101019.69;144992;565;6002;-80
2021/10/13 05:31:03;;;;;;;5.20;3.35;;;;;;;17.25;58.06;101030.25;144992;593;6002;-81
2021/10/13 05:33:29;;;;;;;4.43;3.60;;;;;;;17.29;57.30;101029.44;144992;605;6002;-80
2021/10/13 05:35:56;;;;;;;5.82;3.45;;;;;;;17.30;57.43;101039.03;144992;575;6002;-79
2021/10/13 05:38:22;;;;;;;4.35;3.78;;;;;;;17.31;57.80;101035.56;144992;571;6002;-80
2021/10/13 05:40:49;;;;;;;7.22;3.60;;;;;;;17.31;57.80;101039.94;144992;652;6002;-78
2021/10/13 05:43:15;;;;;;;5.50;4.05;;;;;;;17.32;57.50;101042.56;144992;578;6002;-80
2021/10/13 05:45:42;;;;;;;8.00;4.28;;;;;;;17.34;57.28;101046.06;144992;627;6002;-80
2021/10/13 05:48:08;;;;;;;9.82;6.60;;;;;;;17.33;57.24;101051.31;144992;610;6002;-80
2021/10/13 05:50:35;;;;;;;11.70;6.90;;;;;;;17.32;57.08;101047.81;144992;581;6002;-79
2021/10/13 05:53:01;;;;;;;7.80;5.90;;;;;;;17.34;56.99;101055.66;144992;570;6002;-79
2021/10/13 05:55:28;;;;;;;6.05;4.45;;;;;;;17.35;56.97;101055.69;144992;620;6002;-79
2021/10/13 05:57:54;;;;;;;12.13;6.12;;;;;;;17.36;57.11;101060.06;144992;573;6002;-80
2021/10/13 06:00:22;;;;;;;10.48;6.40;;;;;;;17.38;57.45;101060.94;144992;587;6002;-79
2021/10/13 06:02:49;;;;;;;7.00;4.40;;;;;;;17.41;56.60;101063.59;144992;580;6002;-80
2021/10/13 06:05:15;;;;;;;9.18;5.18;;;;;;;17.44;56.71;101060.13;144992;565;6002;-79
2021/10/13 06:07:42;;;;;;;11.98;6.85;;;;;;;17.49;57.04;101065.41;144992;563;6002;-79
2021/10/13 06:10:09;;;;;;;10.60;5.93;;;;;;;17.54;56.79;101069.81;144992;685;6002;-80
2021/10/13 06:12:36;;;;;;;5.62;4.53;;;;;;;17.50;57.24;101070.69;144992;632;6002;-78
2021/10/13 06:15:03;;;;;;;8.23;4.40;;;;;;;17.60;56.97;101069.00;144992;569;6002;-80
2021/10/13 06:17:33;;;;;;;9.55;6.05;;;;;;;17.64;57.20;101075.13;144992;581;6002;-81
2021/10/13 06:20:00;;;;;;;13.02;8.13;;;;;;;17.67;57.39;101076.00;144992;627;6002;-79
2021/10/13 06:22:27;;;;;;;12.13;7.05;;;;;;;17.74;57.61;101080.44;144992;620;6002;-80
2021/10/13 06:24:53;;;;;;;10.25;5.00;;;;;;;17.81;57.18;101081.34;144992;608;6002;-80
2021/10/13 06:27:19;;;;;;;7.37;4.70;;;;;;;17.88;57.02;101085.81;144992;600;6002;-79
2021/10/13 06:29:46;;;;;;;7.75;5.05;;;;;;;18.01;57.11;101092.00;144992;577;6002;-77
2021/10/13 06:32:12;;;;;;;9.05;6.68;;;;;;;18.16;57.01;101090.34;144992;563;6002;-78
2021/10/13 06:34:39;;;;;;;11.40;5.72;;;;;;;18.34;56.98;101085.16;144992;599;6002;-80
2021/10/13 06:37:05;;;;;;;10.02;4.32;;;;;;;18.53;57.09;101079.94;144992;648;6011;-80
2021/10/13 06:39:33;;;;;;;8.55;4.62;;;;;;;18.66;56.94;101090.50;144992;586;6002;-80
2021/10/13 06:41:59;;;;;;;6.18;4.37;;;;;;;18.78;56.98;101092.25;144992;584;6002;-78
2021/10/13 06:44:26;;;;;;;9.60;5.20;;;;;;;18.84;56.89;101096.72;144992;569;6002;-80
2021/10/13 06:46:54;;;;;;;10.90;4.43;;;;;;;18.80;56.58;101090.53;144992;585;6002;-78
2021/10/13 06:49:20;;;;;;;9.88;4.62;;;;;;;18.77;56.68;101101.06;144992;607;6002;-78
2021/10/13 06:51:47;;;;;;;7.57;4.47;;;;;;;18.77;57.27;101102.78;144992;585;6002;-78
2021/10/13 06:54:14;;;;;;;7.65;4.43;;;;;;;18.95;56.47;101110.75;144992;576;6002;-77
2021/10/13 06:56:41;;;;;;;7.22;4.75;;;;;;;19.20;56.78;101105.50;144992;581;6002;-80
2021/10/13 06:59:07;;;;;;;6.53;4.50;;;;;;;19.45;56.21;101111.63;144992;600;6002;-80
2021/10/13 07:01:33;;;;;;;8.45;5.22;;;;;;;19.75;56.64;101110.72;144991;641;6002;-78
2021/10/13 07:04:00;;;;;;;8.38;5.65;;;;;;;20.05;56.74;101113.34;144992;621;6002;-77
2021/10/13 07:06:27;;;;;;;6.40;5.30;;;;;;;20.21;56.04;101116.78;144992;579;6002;-77
2021/10/13 07:08:53;;;;;;;8.00;5.45;;;;;;;20.27;55.20;101115.00;144992;665;6002;-78
2021/10/13 07:11:21;;;;;;;5.60;4.60;;;;;;;20.26;55.89;101120.28;144992;607;6002;-78
2021/10/13 07:13:48;;;;;;;6.97;5.25;;;;;;;20.28;55.54;101121.13;144992;694;6002;-78
2021/10/13 07:16:14;;;;;;;5.65;4.57;;;;;;;20.27;55.50;101120.28;144992;607;6002;-78
2021/10/13 07:18:41;;;;;;;6.32;4.72;;;;;;;20.24;55.68;101122.91;144992;612;6002;-80
2021/10/13 07:21:07;;;;;;;8.25;4.35;;;;;;;20.32;55.41;101112.34;144992;624;6002;-79
2021/10/13 07:23:34;;;;;;;6.10;4.37;;;;;;;20.43;56.02;101122.84;144992;580;6002;-80
2021/10/13 07:26:00;;;;;;;7.43;4.45;;;;;;;20.52;55.80;101124.56;144991;577;6002;-80
2021/10/13 07:28:28;;;;;;;5.47;4.45;;;;;;;20.66;55.60;101120.12;144993;624;6002;-79
2021/10/13 07:30:54;;;;;;;7.00;5.05;;;;;;;20.90;55.22;101123.50;144993;571;6002;-79
2021/10/13 07:33:20;;;;;;;5.85;4.10;;;;;;;21.12;55.64;101116.31;144993;574;6002;-79
2021/10/13 07:35:47;;;;;;;6.70;4.40;;;;;;;21.41;54.91;101126.62;144993;642;6002;-78
2021/10/13 07:38:16;;;;;;;5.43;3.95;;;;;;;21.69;54.45;101122.00;144993;604;6002;-78
2021/10/13 07:40:44;;;;;;;6.75;3.83;;;;;;;21.93;54.64;101125.28;144993;564;6002;-79
2021/10/13 07:43:10;;;;;;;5.28;4.37;;;;;;;22.14;54.76;101126.78;144993;587;6002;-77
2021/10/13 07:45:36;;;;;;;6.32;4.18;;;;;;;22.34;54.14;101123.97;144993;601;6002;-79
2021/10/13 07:48:03;;;;;;;5.50;4.25;;;;;;;22.51;53.84;101126.41;144993;573;6002;-80
2021/10/13 07:50:30;;;;;;;4.15;3.55;;;;;;;22.67;53.90;101129.69;144993;576;6002;-80
2021/10/13 07:52:56;;;;;;;5.87;3.90;;;;;;;22.86;53.69;101126.78;144993;578;6002;-80
2021/10/13 07:55:23;;;;;;;5.22;2.78;;;;;;;23.00;52.97;101130.97;144993;593;6003;-80
2021/10/13 07:57:49;;;;;;;4.75;3.30;;;;;;;23.03;52.75;101132.69;144992;615;6002;-80
2021/10/13 08:00:20;;;;;;;6.18;3.45;;;;;;;23.10;52.75;101129.09;144992;597;6002;-79
2021/10/13 08:02:50;;;;;;;4.43;3.00;;;;;;;23.22;52.29;101129.78;144991;624;6003;-79
2021/10/13 08:05:17;;;;;;;2.20;2.00;;;;;;;23.38;50.51;101125.13;144992;569;6002;-80
2021/10/13 08:07:45;;;;;;;3.40;2.50;;;;;;;23.08;47.88;101128.25;144992;593;6002;-80
2021/10/13 08:10:13;;;;;;;2.85;2.50;;;;;;;22.70;48.24;101134.06;144992;618;6002;-81
2021/10/13 08:12:39;;;;;;;3.20;2.33;;;;;;;22.51;47.16;101128.13;144993;637;6002;-80
2021/10/13 08:15:08;;;;;;;2.60;2.33;;;;;;;22.27;47.29;101127.53;144993;626;6002;-80
2021/10/13 08:17:34;;;;;;;3.30;2.62;;;;;;;21.99;47.84;101127.00;144993;614;6002;-80
2021/10/13 08:20:05;;;;;;;2.60;2.40;;;;;;;21.95;48.10;101131.41;144993;564;6002;-80
2021/10/13 08:22:32;;;;;;;4.75;2.83;;;;;;;21.98;47.27;101123.44;144993;566;6002;-80
2021/10/13 08:24:58;;;;;;;3.75;2.37;;;;;;;21.73;46.61;101115.81;144993;570;6002;-81
2021/10/13 08:27:24;;;;;;;3.47;2.40;;;;;;;21.69;45.29;101124.63;144993;564;6002;-81
2021/10/13 08:29:51;;;;;;;3.92;2.30;;;;;;;21.61;47.28;101121.19;144993;640;6002;-81
2021/10/13 08:32:17;;;;;;;3.40;2.40;;;;;;;21.46;47.17;101126.56;144993;563;6002;-80
2021/10/13 08:34:44;;;;;;;4.32;3.00;;;;;;;21.29;47.49;101130.25;144993;583;6002;-82
2021/10/13 08:37:10;;;;;;;2.95;2.47;;;;;;;21.14;47.76;101122.44;144993;611;6002;-81
2021/10/13 08:39:37;;;;;;;4.35;2.30;;;;;;;21.06;47.86;101126.91;144993;620;6002;-80
2021/10/13 08:42:03;;;;;;;2.58;2.20;;;;;;;20.87;46.06;101121.78;144993;630;6002;-80
2021/10/13 08:44:31;;;;;;;3.42;2.40;;;;;;;20.62;47.43;101118.37;144993;633;6002;-78
2021/10/13 08:46:58;;;;;;;2.20;2.00;;;;;;;20.71;48.09;101115.72;144993;569;6002;-79
2021/10/13 08:49:24;;;;;;;2.62;2.25;;;;;;;20.77;47.62;101117.41;144993;580;6002;-78
2021/10/13 08:51:51;;;;;;;2.53;2.00;;;;;;;20.70;46.81;101118.34;144993;598;6002;-79
2021/10/13 08:54:18;;;;;;;2.40;2.20;;;;;;;20.71;47.70;101121.00;144993;575;6002;-81
2021/10/13 08:56:45;;;;;;;2.40;2.00;;;;;;;20.78;45.98;101121.81;144993;673;6002;-81
2021/10/13 08:59:41;;;;;;;2.78;2.20;;;;;;;20.61;47.52;101117.47;144993;574;6002;-80
2021/10/13 09:02:08;;;;;;;2.37;1.90;;;;;;;20.68;46.96;101117.47;144993;571;6005;-80
2021/10/13 09:04:35;;;;;;;4.37;2.45;;;;;;;20.63;46.55;101117.47;144993;569;6002;-80
2021/10/13 09:07:03;;;;;;;3.60;2.67;;;;;;;20.75;47.37;101113.94;144994;585;5002;-81
2021/10/13 09:09:30;;;;;;;3.70;2.60;;;;;;;20.79;47.64;101113.91;144994;591;5002;-81
2021/10/13 09:11:57;;;;;;;4.03;3.15;;;;;;;20.90;47.21;101119.09;144994;572;5002;-80
2021/10/13 09:14:28;;;;;;;7.15;2.85;;;;;;;20.95;47.15;101113.78;144994;583;5002;-80
2021/10/13 09:17:16;;;;;;;2.83;1.80;;;;;;;21.05;47.38;101115.47;144994;595;5002;-80
2021/10/13 09:19:51;;;;;;;3.80;2.22;;;;;;;20.95;47.57;101113.78;144994;580;5004;-78
2021/10/13 09:22:19;;;;;;;2.53;2.33;;;;;;;21.07;46.90;101121.63;144994;581;5004;-81
2021/10/13 09:24:51;;;;;;;2.10;1.90;;;;;;;21.16;46.43;101110.12;144994;644;5004;-79
2021/10/13 09:27:23;;;;;;;2.12;1.92;;;;;;;20.96;46.14;101119.03;144994;596;5004;-80
2021/10/13 09:29:57;;;;;;;2.20;2.10;;;;;;;21.00;47.14;101115.50;144994;580;5004;-79
2021/10/13 09:32:26;;;;;;;3.28;2.20;;;;;;;20.99;48.02;101121.66;144994;594;5004;-81
2021/10/13 09:34:57;;;;;;;2.00;1.80;;;;;;;21.09;47.74;101106.62;144994;591;5004;-80
2021/10/13 09:37:40;;;;;;;2.67;2.47;;;;;;;20.96;46.03;101111.13;144994;590;5004;-80
2021/10/13 09:40:07;;;;;;;4.20;2.65;;;;;;;20.97;47.28;101112.91;144994;582;5004;-81
2021/10/13 09:42:38;;;;;;;2.12;1.60;;;;;;;21.10;46.04;101100.47;144994;612;5004;-78
2021/10/13 09:45:05;;;;;;;2.47;1.70;;;;;;;20.99;44.85;101105.81;144994;569;5004;-81
2021/10/13 09:47:36;;;;;;;3.10;1.77;;;;;;;20.96;46.10;101103.22;144994;593;5004;-80
2021/10/13 09:50:08;;;;;;;2.25;1.60;;;;;;;20.99;45.27;101100.56;144994;623;5004;-79
2021/10/13 09:52:35;;;;;;;3.40;1.95;;;;;;;21.01;44.26;101103.19;144993;629;5004;-79
2021/10/13 09:55:10;;;;;;;2.12;1.92;;;;;;;20.95;45.48;101101.47;144994;686;5002;-80
2021/10/13 09:57:49;;;;;;;2.00;1.80;;;;;;;20.95;45.78;101106.75;144994;584;5002;-78
2021/10/13 10:00:26;;;;;;;2.35;2.12;;;;;;;20.97;44.73;101086.50;144994;595;5002;-79
2021/10/13 10:03:02;;;;;;;5.97;4.80;;;;;;;20.90;44.77;101089.19;144994;567;5002;-80
2021/10/13 10:05:33;;;;;;;4.68;2.67;;;;;;;20.86;45.85;101090.13;144994;634;5002;-81
2021/10/13 10:08:06;;;;;;;2.45;2.00;;;;;;;21.00;45.52;101088.25;144994;583;5002;-79
2021/10/13 10:10:35;;;;;;;2.67;2.25;;;;;;;20.97;46.28;101089.12;144994;585;5002;-79
2021/10/13 10:13:12;;;;;;;3.05;2.30;;;;;;;21.00;45.78;101078.56;144994;578;5002;-80
2021/10/13 10:15:48;;;;;;;2.80;1.90;;;;;;;21.15;46.27;101084.59;144994;569;5002;-81
2021/10/13 10:18:34;;;;;;;3.55;2.60;;;;;;;20.93;44.35;101079.47;144994;610;5002;-79
2021/10/13 10:21:20;;;;;;;2.28;2.08;;;;;;;21.03;46.35;101085.59;144994;634;5002;-79
2021/10/13 10:23:48;;;;;;;3.67;2.12;;;;;;;21.12;47.01;101084.63;144994;595;5004;-80
2021/10/13 10:26:32;;;;;;;1.85;1.75;;;;;;;21.14;45.52;101090.75;144994;573;5004;-80
2021/10/13 10:29:10;;;;;;;2.37;2.15;;;;;;;21.16;45.84;101084.59;144994;575;5004;-80
2021/10/13 10:31:39;;;;;;;2.40;2.15;;;;;;;21.15;46.49;101084.59;144994;567;5004;-79
2021/10/13 10:34:25;;;;;;;2.35;2.10;;;;;;;21.19;46.68;101081.94;144994;591;5004;-81
2021/10/13 10:37:11;;;;;;;5.97;3.67;;;;;;;21.27;46.84;101080.97;144994;666;5002;-78
2021/10/13 10:39:55;;;;;;;3.75;2.62;;;;;;;21.40;47.22;101079.12;144994;571;5002;-80
2021/10/13 10:42:47;;;;;;;3.70;3.40;;;;;;;21.28;47.14;101083.59;144994;584;5002;-79
2021/10/13 10:45:22;;;;;;;4.32;2.92;;;;;;;21.29;46.80;101074.81;144994;579;5004;-79
2021/10/13 10:47:52;;;;;;;2.75;2.10;;;;;;;21.09;47.32;101074.09;144994;646;5004;-79
2021/10/13 10:50:55;;;;;;;2.20;2.10;;;;;;;21.04;47.50;101070.63;144994;571;5004;-80
2021/10/13 10:53:41;;;;;;;3.78;2.22;;;;;;;21.06;48.30;101075.00;144994;636;5004;-80
2021/10/13 10:56:27;;;;;;;2.62;1.90;;;;;;;21.10;47.75;101074.09;144994;590;5004;-80
2021/10/13 10:59:05;;;;;;;1.90;1.80;;;;;;;21.17;46.79;101066.97;144994;586;5004;-80
2021/10/13 11:01:32;;;;;;;4.15;2.28;;;;;;;21.01;47.33;101068.88;144994;610;5005;-80
2021/10/13 11:04:04;;;;;;;4.32;2.30;;;;;;;21.10;47.23;101073.22;144994;576;5004;-78
2021/10/13 11:06:35;;;;;;;3.28;2.53;;;;;;;21.01;47.64;101067.13;144994;571;5004;-79
2021/10/13 11:09:10;;;;;;;3.00;1.77;;;;;;;21.01;47.98;101061.84;144994;567;5005;-81
2021/10/13 11:11:47;;;;;;;1.92;1.67;;;;;;;21.04;46.70;101052.16;144994;563;5004;-80
2021/10/13 11:14:27;;;;;;;2.15;1.80;;;;;;;21.08;46.07;101046.84;144994;567;5004;-80
2021/10/13 11:16:57;;;;;;;2.10;1.90;;;;;;;20.97;46.09;101049.56;144994;586;5005;-80
2021/10/13 11:19:35;;;;;;;1.95;1.70;;;;;;;21.02;46.25;101045.09;144994;574;5004;-80
2021/10/13 11:22:10;;;;;;;1.70;1.60;;;;;;;21.10;46.40;101049.47;144994;566;5004;-80
2021/10/13 11:24:39;;;;;;;2.45;2.25;;;;;;;20.94;46.84;101040.78;144994;679;5005;-79
2021/10/13 11:27:06;;;;;;;2.53;2.33;;;;;;;20.94;46.46;101039.03;144994;568;5004;-79
2021/10/13 11:29:36;;;;;;;2.03;1.80;;;;;;;21.00;47.54;101038.97;144993;627;5004;-78
2021/10/13 11:32:11;;;;;;;2.25;2.00;;;;;;;20.96;47.06;101045.16;144994;617;5002;-80
2021/10/13 11:34:39;;;;;;;4.28;1.95;;;;;;;21.10;47.06;101049.47;144994;570;5002;-80
2021/10/13 11:37:06;;;;;;;2.20;2.00;;;;;;;20.92;48.26;101045.19;144994;565;5002;-79
2021/10/13 11:39:39;;;;;;;3.05;2.55;;;;;;;20.79;47.72;101047.94;144994;593;5002;-81
2021/10/13 11:42:13;;;;;;;3.67;2.35;;;;;;;20.81;48.28;101038.25;144994;580;5002;-79
2021/10/13 11:44:45;;;;;;;;;;;;;;;20.86;48.40;101047.91;144998;913;5002;-78
2021/10/13 11:47:11;;;;;;;2.80;2.55;;;;;;;20.91;49.29;101040.81;144998;576;5002;-79
2021/10/13 11:50:01;;;;;;;2.85;2.42;;;;;;;20.97;49.11;101040.78;144994;571;5002;-79